sensor_id;sensor_type;location;lat;lon;timestamp;P1;durP1;ratioP1;P2;durP2;ratioP2
795;SDS011;381;48.770;9.188;2024-03-08T00:04:36;0.63;;;0.63;;
795;SDS011;381;48.770;9.188;2024-03-08T00:09:38;0.70;;;0.70;;
795;SDS011;381;48.770;9.188;2024-03-08T00:14:42;0.70;;;0.70;;
795;SDS011;381;48.770;9.188;2024-03-08T00:19:45;0.60;;;0.60;;
795;SDS011;381;48.770;9.188;2024-03-08T00:24:47;0.70;;;0.70;;
795;SDS011;381;48.770;9.188;2024-03-08T00:29:52;0.50;;;0.50;;
795;SDS011;381;48.770;9.188;2024-03-08T00:34:54;0.67;;;0.67;;
795;SDS011;381;48.770;9.188;2024-03-08T00:39:57;0.60;;;0.60;;
795;SDS011;381;48.770;9.188;2024-03-08T00:45:00;0.50;;;0.50;;
795;SDS011;381;48.770;9.188;2024-03-08T00:50:04;0.60;;;0.60;;
795;SDS011;381;48.770;9.188;2024-03-08T00:55:07;0.60;;;0.60;;
795;SDS011;381;48.770;9.188;2024-03-08T01:00:13;0.60;;;0.60;;
795;SDS011;381;48.770;9.188;2024-03-08T01:05:15;0.60;;;0.60;;
795;SDS011;381;48.770;9.188;2024-03-08T01:10:18;0.60;;;0.60;;
795;SDS011;381;48.770;9.188;2024-03-08T01:15:22;0.60;;;0.60;;
795;SDS011;381;48.770;9.188;2024-03-08T01:20:24;0.60;;;0.60;;
795;SDS011;381;48.770;9.188;2024-03-08T01:25:26;0.60;;;0.60;;
795;SDS011;381;48.770;9.188;2024-03-08T01:30:33;0.60;;;0.60;;
795;SDS011;381;48.770;9.188;2024-03-08T01:35:37;0.60;;;0.60;;
795;SDS011;381;48.770;9.188;2024-03-08T01:40:42;0.50;;;0.50;;
795;SDS011;381;48.770;9.188;2024-03-08T01:45:45;0.57;;;0.57;;
795;SDS011;381;48.770;9.188;2024-03-08T01:50:48;0.63;;;0.63;;
795;SDS011;381;48.770;9.188;2024-03-08T01:55:51;0.73;;;0.73;;
795;SDS011;381;48.770;9.188;2024-03-08T02:00:59;0.73;;;0.73;;
795;SDS011;381;48.770;9.188;2024-03-08T02:06:05;0.60;;;0.60;;
795;SDS011;381;48.770;9.188;2024-03-08T02:11:10;0.60;;;0.60;;
795;SDS011;381;48.770;9.188;2024-03-08T02:16:19;0.70;;;0.70;;
795;SDS011;381;48.770;9.188;2024-03-08T02:21:24;0.60;;;0.60;;
795;SDS011;381;48.770;9.188;2024-03-08T02:26:27;0.60;;;0.60;;
795;SDS011;381;48.770;9.188;2024-03-08T02:31:29;0.70;;;0.70;;
795;SDS011;381;48.770;9.188;2024-03-08T02:36:33;0.73;;;0.73;;
795;SDS011;381;48.770;9.188;2024-03-08T02:41:35;0.70;;;0.70;;
795;SDS011;381;48.770;9.188;2024-03-08T02:46:38;0.70;;;0.70;;
795;SDS011;381;48.770;9.188;2024-03-08T02:51:42;0.80;;;0.80;;
795;SDS011;381;48.770;9.188;2024-03-08T02:56:44;0.50;;;0.50;;
795;SDS011;381;48.770;9.188;2024-03-08T03:01:47;0.60;;;0.60;;
795;SDS011;381;48.770;9.188;2024-03-08T03:06:50;0.60;;;0.60;;
795;SDS011;381;48.770;9.188;2024-03-08T03:11:53;0.70;;;0.70;;
795;SDS011;381;48.770;9.188;2024-03-08T03:16:56;0.70;;;0.70;;
795;SDS011;381;48.770;9.188;2024-03-08T03:21:59;0.50;;;0.50;;
795;SDS011;381;48.770;9.188;2024-03-08T03:27:03;0.60;;;0.60;;
795;SDS011;381;48.770;9.188;2024-03-08T03:32:11;0.80;;;0.80;;
795;SDS011;381;48.770;9.188;2024-03-08T03:37:14;0.80;;;0.80;;
795;SDS011;381;48.770;9.188;2024-03-08T03:42:19;0.83;;;0.83;;
795;SDS011;381;48.770;9.188;2024-03-08T03:47:21;0.70;;;0.70;;
795;SDS011;381;48.770;9.188;2024-03-08T03:52:25;0.50;;;0.50;;
795;SDS011;381;48.770;9.188;2024-03-08T03:57:27;0.80;;;0.80;;
795;SDS011;381;48.770;9.188;2024-03-08T04:02:30;0.87;;;0.87;;
795;SDS011;381;48.770;9.188;2024-03-08T04:07:34;1.10;;;1.10;;
795;SDS011;381;48.770;9.188;2024-03-08T04:12:37;0.87;;;0.87;;
795;SDS011;381;48.770;9.188;2024-03-08T04:17:39;0.90;;;0.90;;
795;SDS011;381;48.770;9.188;2024-03-08T04:22:43;0.77;;;0.77;;
795;SDS011;381;48.770;9.188;2024-03-08T04:27:48;0.90;;;0.90;;
795;SDS011;381;48.770;9.188;2024-03-08T04:32:53;1.17;;;1.17;;
795;SDS011;381;48.770;9.188;2024-03-08T04:37:56;0.90;;;0.90;;
795;SDS011;381;48.770;9.188;2024-03-08T04:42:59;1.10;;;1.10;;
795;SDS011;381;48.770;9.188;2024-03-08T04:48:01;0.80;;;0.80;;
795;SDS011;381;48.770;9.188;2024-03-08T04:53:05;0.97;;;0.97;;
795;SDS011;381;48.770;9.188;2024-03-08T04:58:08;0.80;;;0.80;;
795;SDS011;381;48.770;9.188;2024-03-08T05:03:11;0.70;;;0.70;;
795;SDS011;381;48.770;9.188;2024-03-08T05:08:14;0.70;;;0.70;;
795;SDS011;381;48.770;9.188;2024-03-08T05:13:19;0.80;;;0.80;;
795;SDS011;381;48.770;9.188;2024-03-08T05:18:21;0.80;;;0.80;;
795;SDS011;381;48.770;9.188;2024-03-08T05:23:25;0.80;;;0.80;;
795;SDS011;381;48.770;9.188;2024-03-08T05:28:27;0.70;;;0.70;;
795;SDS011;381;48.770;9.188;2024-03-08T05:33:29;0.83;;;0.83;;
795;SDS011;381;48.770;9.188;2024-03-08T05:38:33;0.70;;;0.70;;
795;SDS011;381;48.770;9.188;2024-03-08T05:43:36;0.60;;;0.60;;
795;SDS011;381;48.770;9.188;2024-03-08T05:48:38;0.80;;;0.80;;
795;SDS011;381;48.770;9.188;2024-03-08T05:53:42;0.80;;;0.80;;
795;SDS011;381;48.770;9.188;2024-03-08T05:58:44;0.70;;;0.70;;
795;SDS011;381;48.770;9.188;2024-03-08T06:03:48;0.70;;;0.70;;
795;SDS011;381;48.770;9.188;2024-03-08T06:08:52;0.60;;;0.60;;
795;SDS011;381;48.770;9.188;2024-03-08T06:13:57;0.80;;;0.80;;
795;SDS011;381;48.770;9.188;2024-03-08T06:19:01;0.60;;;0.60;;
795;SDS011;381;48.770;9.188;2024-03-08T06:24:05;0.23;;;0.23;;
795;SDS011;381;48.770;9.188;2024-03-08T06:29:07;0.63;;;0.63;;
795;SDS011;381;48.770;9.188;2024-03-08T06:34:10;0.70;;;0.70;;
795;SDS011;381;48.770;9.188;2024-03-08T06:39:13;0.60;;;0.60;;
795;SDS011;381;48.770;9.188;2024-03-08T06:44:16;0.20;;;0.20;;
795;SDS011;381;48.770;9.188;2024-03-08T06:49:18;0.20;;;0.20;;
795;SDS011;381;48.770;9.188;2024-03-08T06:54:22;0.60;;;0.60;;
795;SDS011;381;48.770;9.188;2024-03-08T06:59:25;0.40;;;0.40;;
795;SDS011;381;48.770;9.188;2024-03-08T07:04:27;0.50;;;0.50;;
795;SDS011;381;48.770;9.188;2024-03-08T07:09:31;0.57;;;0.57;;
795;SDS011;381;48.770;9.188;2024-03-08T07:14:34;0.70;;;0.70;;
795;SDS011;381;48.770;9.188;2024-03-08T07:19:41;0.60;;;0.60;;
795;SDS011;381;48.770;9.188;2024-03-08T07:24:45;0.80;;;0.80;;
795;SDS011;381;48.770;9.188;2024-03-08T07:30:05;0.77;;;0.77;;
795;SDS011;381;48.770;9.188;2024-03-08T07:35:10;0.60;;;0.60;;
795;SDS011;381;48.770;9.188;2024-03-08T07:40:14;0.60;;;0.60;;
795;SDS011;381;48.770;9.188;2024-03-08T07:45:18;0.37;;;0.37;;
795;SDS011;381;48.770;9.188;2024-03-08T07:50:22;0.40;;;0.40;;
795;SDS011;381;48.770;9.188;2024-03-08T07:55:26;0.50;;;0.50;;
795;SDS011;381;48.770;9.188;2024-03-08T08:00:29;0.57;;;0.57;;
795;SDS011;381;48.770;9.188;2024-03-08T08:05:32;0.40;;;0.40;;
795;SDS011;381;48.770;9.188;2024-03-08T08:10:37;0.50;;;0.50;;
795;SDS011;381;48.770;9.188;2024-03-08T08:15:43;0.50;;;0.50;;
795;SDS011;381;48.770;9.188;2024-03-08T08:20:46;0.40;;;0.40;;
795;SDS011;381;48.770;9.188;2024-03-08T08:25:50;0.50;;;0.50;;
795;SDS011;381;48.770;9.188;2024-03-08T08:30:52;0.50;;;0.50;;
795;SDS011;381;48.770;9.188;2024-03-08T08:35:55;0.27;;;0.27;;
795;SDS011;381;48.770;9.188;2024-03-08T08:40:58;0.40;;;0.40;;
795;SDS011;381;48.770;9.188;2024-03-08T08:46:03;0.40;;;0.40;;
795;SDS011;381;48.770;9.188;2024-03-08T08:51:05;0.40;;;0.40;;
795;SDS011;381;48.770;9.188;2024-03-08T08:56:09;0.40;;;0.40;;
795;SDS011;381;48.770;9.188;2024-03-08T09:01:13;0.30;;;0.30;;
795;SDS011;381;48.770;9.188;2024-03-08T09:06:16;0.00;;;0.00;;
795;SDS011;381;48.770;9.188;2024-03-08T09:11:20;0.30;;;0.30;;
795;SDS011;381;48.770;9.188;2024-03-08T09:16:23;0.07;;;0.07;;
795;SDS011;381;48.770;9.188;2024-03-08T09:21:25;0.30;;;0.30;;
795;SDS011;381;48.770;9.188;2024-03-08T09:26:29;0.23;;;0.23;;
795;SDS011;381;48.770;9.188;2024-03-08T09:31:31;0.20;;;0.20;;
795;SDS011;381;48.770;9.188;2024-03-08T09:36:34;0.20;;;0.20;;
795;SDS011;381;48.770;9.188;2024-03-08T09:41:39;0.40;;;0.40;;
795;SDS011;381;48.770;9.188;2024-03-08T09:46:42;0.30;;;0.30;;
795;SDS011;381;48.770;9.188;2024-03-08T09:51:44;0.37;;;0.37;;
795;SDS011;381;48.770;9.188;2024-03-08T09:56:48;0.30;;;0.30;;
795;SDS011;381;48.770;9.188;2024-03-08T10:01:53;0.40;;;0.40;;
795;SDS011;381;48.770;9.188;2024-03-08T10:06:57;0.40;;;0.40;;
795;SDS011;381;48.770;9.188;2024-03-08T10:12:01;0.40;;;0.40;;
795;SDS011;381;48.770;9.188;2024-03-08T10:17:04;0.20;;;0.20;;
795;SDS011;381;48.770;9.188;2024-03-08T10:22:06;0.40;;;0.40;;
795;SDS011;381;48.770;9.188;2024-03-08T10:27:18;0.40;;;0.40;;
795;SDS011;381;48.770;9.188;2024-03-08T10:32:20;0.37;;;0.37;;
795;SDS011;381;48.770;9.188;2024-03-08T10:37:25;0.30;;;0.30;;
795;SDS011;381;48.770;9.188;2024-03-08T10:42:31;0.30;;;0.30;;
795;SDS011;381;48.770;9.188;2024-03-08T10:47:35;0.30;;;0.30;;
795;SDS011;381;48.770;9.188;2024-03-08T10:52:43;0.30;;;0.30;;
795;SDS011;381;48.770;9.188;2024-03-08T10:57:50;0.40;;;0.40;;
795;SDS011;381;48.770;9.188;2024-03-08T11:02:54;0.20;;;0.20;;
795;SDS011;381;48.770;9.188;2024-03-08T11:07:57;0.40;;;0.40;;
795;SDS011;381;48.770;9.188;2024-03-08T11:13:01;0.30;;;0.30;;
795;SDS011;381;48.770;9.188;2024-03-08T11:18:04;0.30;;;0.30;;
795;SDS011;381;48.770;9.188;2024-03-08T11:23:11;0.40;;;0.40;;
795;SDS011;381;48.770;9.188;2024-03-08T11:28:15;0.50;;;0.50;;
795;SDS011;381;48.770;9.188;2024-03-08T11:33:20;0.40;;;0.40;;
795;SDS011;381;48.770;9.188;2024-03-08T11:38:22;0.40;;;0.40;;
795;SDS011;381;48.770;9.188;2024-03-08T11:43:26;0.30;;;0.30;;
795;SDS011;381;48.770;9.188;2024-03-08T11:48:28;0.40;;;0.40;;
795;SDS011;381;48.770;9.188;2024-03-08T11:53:32;0.40;;;0.40;;
795;SDS011;381;48.770;9.188;2024-03-08T11:58:38;0.20;;;0.20;;
795;SDS011;381;48.770;9.188;2024-03-08T12:03:41;0.40;;;0.40;;
795;SDS011;381;48.770;9.188;2024-03-08T12:08:43;0.40;;;0.40;;
795;SDS011;381;48.770;9.188;2024-03-08T12:13:51;0.40;;;0.40;;
795;SDS011;381;48.770;9.188;2024-03-08T12:18:54;0.37;;;0.37;;
795;SDS011;381;48.770;9.188;2024-03-08T12:24:02;0.30;;;0.30;;
795;SDS011;381;48.770;9.188;2024-03-08T12:29:17;0.40;;;0.40;;
795;SDS011;381;48.770;9.188;2024-03-08T12:34:24;0.43;;;0.43;;
795;SDS011;381;48.770;9.188;2024-03-08T12:39:27;0.40;;;0.40;;
795;SDS011;381;48.770;9.188;2024-03-08T12:44:33;0.30;;;0.30;;
795;SDS011;381;48.770;9.188;2024-03-08T12:49:35;0.40;;;0.40;;
795;SDS011;381;48.770;9.188;2024-03-08T12:54:38;0.40;;;0.40;;
795;SDS011;381;48.770;9.188;2024-03-08T12:59:42;0.47;;;0.47;;
795;SDS011;381;48.770;9.188;2024-03-08T13:04:45;0.30;;;0.30;;
795;SDS011;381;48.770;9.188;2024-03-08T13:09:56;0.40;;;0.40;;
795;SDS011;381;48.770;9.188;2024-03-08T13:15:01;0.40;;;0.40;;
795;SDS011;381;48.770;9.188;2024-03-08T13:20:06;0.40;;;0.40;;
795;SDS011;381;48.770;9.188;2024-03-08T13:25:10;0.40;;;0.40;;
795;SDS011;381;48.770;9.188;2024-03-08T13:30:15;0.30;;;0.30;;
795;SDS011;381;48.770;9.188;2024-03-08T13:35:19;0.30;;;0.30;;
795;SDS011;381;48.770;9.188;2024-03-08T13:40:25;0.30;;;0.30;;
795;SDS011;381;48.770;9.188;2024-03-08T13:45:28;0.43;;;0.43;;
795;SDS011;381;48.770;9.188;2024-03-08T13:50:31;0.30;;;0.30;;
795;SDS011;381;48.770;9.188;2024-03-08T13:55:33;0.40;;;0.40;;
795;SDS011;381;48.770;9.188;2024-03-08T14:00:37;0.40;;;0.40;;
795;SDS011;381;48.770;9.188;2024-03-08T14:05:42;0.40;;;0.40;;
795;SDS011;381;48.770;9.188;2024-03-08T14:10:45;0.30;;;0.30;;
795;SDS011;381;48.770;9.188;2024-03-08T14:15:48;0.33;;;0.33;;
795;SDS011;381;48.770;9.188;2024-03-08T14:20:52;0.40;;;0.40;;
795;SDS011;381;48.770;9.188;2024-03-08T14:25:55;0.40;;;0.40;;
795;SDS011;381;48.770;9.188;2024-03-08T14:31:01;0.40;;;0.40;;
795;SDS011;381;48.770;9.188;2024-03-08T14:36:04;0.50;;;0.50;;
795;SDS011;381;48.770;9.188;2024-03-08T14:41:06;0.50;;;0.50;;
795;SDS011;381;48.770;9.188;2024-03-08T14:46:10;0.30;;;0.30;;
795;SDS011;381;48.770;9.188;2024-03-08T14:51:17;0.43;;;0.43;;
795;SDS011;381;48.770;9.188;2024-03-08T14:56:21;0.50;;;0.50;;
795;SDS011;381;48.770;9.188;2024-03-08T15:01:29;0.50;;;0.50;;
795;SDS011;381;48.770;9.188;2024-03-08T15:06:33;0.40;;;0.40;;
795;SDS011;381;48.770;9.188;2024-03-08T15:11:37;0.50;;;0.50;;
795;SDS011;381;48.770;9.188;2024-03-08T15:16:41;0.27;;;0.27;;
795;SDS011;381;48.770;9.188;2024-03-08T15:21:46;0.47;;;0.47;;
795;SDS011;381;48.770;9.188;2024-03-08T15:26:48;0.50;;;0.50;;
795;SDS011;381;48.770;9.188;2024-03-08T15:31:57;0.40;;;0.40;;
795;SDS011;381;48.770;9.188;2024-03-08T15:36:59;0.40;;;0.40;;
795;SDS011;381;48.770;9.188;2024-03-08T15:42:03;0.60;;;0.60;;
795;SDS011;381;48.770;9.188;2024-03-08T15:47:07;0.50;;;0.50;;
795;SDS011;381;48.770;9.188;2024-03-08T15:52:12;0.60;;;0.60;;
795;SDS011;381;48.770;9.188;2024-03-08T15:57:14;0.57;;;0.57;;
795;SDS011;381;48.770;9.188;2024-03-08T16:02:21;0.50;;;0.50;;
795;SDS011;381;48.770;9.188;2024-03-08T16:07:25;0.20;;;0.20;;
795;SDS011;381;48.770;9.188;2024-03-08T16:12:27;0.30;;;0.30;;
795;SDS011;381;48.770;9.188;2024-03-08T16:17:31;0.50;;;0.50;;
795;SDS011;381;48.770;9.188;2024-03-08T16:22:34;0.50;;;0.50;;
795;SDS011;381;48.770;9.188;2024-03-08T16:27:36;0.50;;;0.50;;
795;SDS011;381;48.770;9.188;2024-03-08T16:32:41;0.60;;;0.60;;
795;SDS011;381;48.770;9.188;2024-03-08T16:37:43;0.50;;;0.50;;
795;SDS011;381;48.770;9.188;2024-03-08T16:42:47;0.40;;;0.40;;
795;SDS011;381;48.770;9.188;2024-03-08T16:47:54;0.60;;;0.60;;
795;SDS011;381;48.770;9.188;2024-03-08T16:52:56;0.60;;;0.60;;
795;SDS011;381;48.770;9.188;2024-03-08T16:57:59;0.60;;;0.60;;
795;SDS011;381;48.770;9.188;2024-03-08T17:03:03;0.30;;;0.30;;
795;SDS011;381;48.770;9.188;2024-03-08T17:08:07;0.40;;;0.40;;
795;SDS011;381;48.770;9.188;2024-03-08T17:13:11;0.50;;;0.50;;
795;SDS011;381;48.770;9.188;2024-03-08T17:18:16;0.60;;;0.60;;
795;SDS011;381;48.770;9.188;2024-03-08T17:23:19;0.20;;;0.20;;
795;SDS011;381;48.770;9.188;2024-03-08T17:28:22;0.60;;;0.60;;
795;SDS011;381;48.770;9.188;2024-03-08T17:33:29;0.50;;;0.50;;
795;SDS011;381;48.770;9.188;2024-03-08T17:38:35;0.20;;;0.20;;
795;SDS011;381;48.770;9.188;2024-03-08T17:43:45;0.60;;;0.60;;
795;SDS011;381;48.770;9.188;2024-03-08T17:48:49;0.60;;;0.60;;
795;SDS011;381;48.770;9.188;2024-03-08T17:53:54;0.50;;;0.50;;
795;SDS011;381;48.770;9.188;2024-03-08T17:58:57;0.47;;;0.47;;
795;SDS011;381;48.770;9.188;2024-03-08T18:04:01;0.57;;;0.57;;
795;SDS011;381;48.770;9.188;2024-03-08T18:09:04;0.60;;;0.60;;
795;SDS011;381;48.770;9.188;2024-03-08T18:14:11;0.50;;;0.50;;
795;SDS011;381;48.770;9.188;2024-03-08T18:19:15;0.47;;;0.47;;
795;SDS011;381;48.770;9.188;2024-03-08T18:24:19;0.50;;;0.50;;
795;SDS011;381;48.770;9.188;2024-03-08T18:29:22;0.70;;;0.70;;
795;SDS011;381;48.770;9.188;2024-03-08T18:34:26;0.50;;;0.50;;
795;SDS011;381;48.770;9.188;2024-03-08T18:39:28;0.50;;;0.50;;
795;SDS011;381;48.770;9.188;2024-03-08T18:44:30;0.50;;;0.50;;
795;SDS011;381;48.770;9.188;2024-03-08T18:49:34;0.20;;;0.20;;
795;SDS011;381;48.770;9.188;2024-03-08T18:54:36;0.50;;;0.50;;
795;SDS011;381;48.770;9.188;2024-03-08T18:59:39;0.50;;;0.50;;
795;SDS011;381;48.770;9.188;2024-03-08T19:04:43;0.40;;;0.40;;
795;SDS011;381;48.770;9.188;2024-03-08T19:09:45;0.60;;;0.60;;
795;SDS011;381;48.770;9.188;2024-03-08T19:14:48;0.50;;;0.50;;
795;SDS011;381;48.770;9.188;2024-03-08T19:19:53;0.43;;;0.43;;
795;SDS011;381;48.770;9.188;2024-03-08T19:24:55;0.50;;;0.50;;
795;SDS011;381;48.770;9.188;2024-03-08T19:29:58;0.53;;;0.53;;
795;SDS011;381;48.770;9.188;2024-03-08T19:35:02;0.40;;;0.40;;
795;SDS011;381;48.770;9.188;2024-03-08T19:40:11;0.27;;;0.27;;
795;SDS011;381;48.770;9.188;2024-03-08T19:45:20;0.40;;;0.40;;
795;SDS011;381;48.770;9.188;2024-03-08T19:50:28;0.40;;;0.40;;
795;SDS011;381;48.770;9.188;2024-03-08T19:55:31;0.30;;;0.30;;
795;SDS011;381;48.770;9.188;2024-03-08T20:00:34;0.40;;;0.40;;
795;SDS011;381;48.770;9.188;2024-03-08T20:05:38;0.40;;;0.40;;
795;SDS011;381;48.770;9.188;2024-03-08T20:10:43;0.40;;;0.40;;
795;SDS011;381;48.770;9.188;2024-03-08T20:15:48;0.50;;;0.50;;
795;SDS011;381;48.770;9.188;2024-03-08T20:20:55;0.40;;;0.40;;
795;SDS011;381;48.770;9.188;2024-03-08T20:25:58;0.43;;;0.43;;
795;SDS011;381;48.770;9.188;2024-03-08T20:31:02;0.40;;;0.40;;
795;SDS011;381;48.770;9.188;2024-03-08T20:36:07;0.40;;;0.40;;
795;SDS011;381;48.770;9.188;2024-03-08T20:41:09;0.10;;;0.10;;
795;SDS011;381;48.770;9.188;2024-03-08T20:46:12;0.50;;;0.50;;
795;SDS011;381;48.770;9.188;2024-03-08T20:51:17;0.43;;;0.43;;
795;SDS011;381;48.770;9.188;2024-03-08T20:56:20;0.50;;;0.50;;
795;SDS011;381;48.770;9.188;2024-03-08T21:01:22;0.50;;;0.50;;
795;SDS011;381;48.770;9.188;2024-03-08T21:06:32;0.50;;;0.50;;
795;SDS011;381;48.770;9.188;2024-03-08T21:11:35;0.50;;;0.50;;
795;SDS011;381;48.770;9.188;2024-03-08T21:16:37;0.43;;;0.43;;
795;SDS011;381;48.770;9.188;2024-03-08T21:21:43;0.50;;;0.50;;
795;SDS011;381;48.770;9.188;2024-03-08T21:26:48;0.50;;;0.50;;
795;SDS011;381;48.770;9.188;2024-03-08T21:31:53;0.30;;;0.30;;
795;SDS011;381;48.770;9.188;2024-03-08T21:36:57;0.40;;;0.40;;
795;SDS011;381;48.770;9.188;2024-03-08T21:42:00;0.40;;;0.40;;
795;SDS011;381;48.770;9.188;2024-03-08T21:47:04;0.40;;;0.40;;
795;SDS011;381;48.770;9.188;2024-03-08T21:52:07;0.40;;;0.40;;
795;SDS011;381;48.770;9.188;2024-03-08T21:57:10;0.40;;;0.40;;
795;SDS011;381;48.770;9.188;2024-03-08T22:02:12;0.40;;;0.40;;
795;SDS011;381;48.770;9.188;2024-03-08T22:07:17;0.40;;;0.40;;
795;SDS011;381;48.770;9.188;2024-03-08T22:12:19;0.30;;;0.30;;
795;SDS011;381;48.770;9.188;2024-03-08T22:17:22;0.40;;;0.40;;
795;SDS011;381;48.770;9.188;2024-03-08T22:22:27;0.40;;;0.40;;
795;SDS011;381;48.770;9.188;2024-03-08T22:27:29;0.40;;;0.40;;
795;SDS011;381;48.770;9.188;2024-03-08T22:32:33;0.40;;;0.40;;
795;SDS011;381;48.770;9.188;2024-03-08T22:37:37;0.30;;;0.30;;
795;SDS011;381;48.770;9.188;2024-03-08T22:42:41;0.30;;;0.30;;
795;SDS011;381;48.770;9.188;2024-03-08T22:47:44;0.30;;;0.30;;
795;SDS011;381;48.770;9.188;2024-03-08T22:52:48;0.50;;;0.50;;
795;SDS011;381;48.770;9.188;2024-03-08T22:57:51;0.40;;;0.40;;
795;SDS011;381;48.770;9.188;2024-03-08T23:02:53;0.50;;;0.50;;
795;SDS011;381;48.770;9.188;2024-03-08T23:07:58;0.50;;;0.50;;
795;SDS011;381;48.770;9.188;2024-03-08T23:13:04;0.60;;;0.60;;
795;SDS011;381;48.770;9.188;2024-03-08T23:18:07;0.50;;;0.50;;
795;SDS011;381;48.770;9.188;2024-03-08T23:23:13;0.50;;;0.50;;
795;SDS011;381;48.770;9.188;2024-03-08T23:28:15;0.50;;;0.50;;
795;SDS011;381;48.770;9.188;2024-03-08T23:33:18;0.40;;;0.40;;
795;SDS011;381;48.770;9.188;2024-03-08T23:38:22;0.47;;;0.47;;
795;SDS011;381;48.770;9.188;2024-03-08T23:43:25;0.50;;;0.50;;
795;SDS011;381;48.770;9.188;2024-03-08T23:48:27;0.60;;;0.60;;
795;SDS011;381;48.770;9.188;2024-03-08T23:53:32;0.57;;;0.57;;
795;SDS011;381;48.770;9.188;2024-03-08T23:58:35;0.60;;;0.60;;
